sensor_id;sensor_type;location;lat;lon;timestamp;P1;durP1;ratioP1;P2;durP2;ratioP2
73331;SDS011;61560;33.718;73.040;2022-12-16T00:00:06;17.83;;;7.80;;
73331;SDS011;61560;33.718;73.040;2022-12-16T00:02:38;19.80;;;8.55;;
73331;SDS011;61560;33.718;73.040;2022-12-16T00:05:06;17.92;;;7.28;;
73331;SDS011;61560;33.718;73.040;2022-12-16T00:07:34;18.58;;;7.75;;
73331;SDS011;61560;33.718;73.040;2022-12-16T00:10:00;19.27;;;7.20;;
73331;SDS011;61560;33.718;73.040;2022-12-16T00:12:28;18.40;;;6.90;;
73331;SDS011;61560;33.718;73.040;2022-12-16T00:14:54;11.63;;;6.53;;
73331;SDS011;61560;33.718;73.040;2022-12-16T00:17:21;15.52;;;6.43;;
73331;SDS011;61560;33.718;73.040;2022-12-16T00:19:47;17.30;;;7.18;;
73331;SDS011;61560;33.718;73.040;2022-12-16T00:22:14;18.75;;;7.78;;
73331;SDS011;61560;33.718;73.040;2022-12-16T00:24:40;13.77;;;6.13;;
73331;SDS011;61560;33.718;73.040;2022-12-16T00:27:07;18.25;;;7.60;;
73331;SDS011;61560;33.718;73.040;2022-12-16T00:29:34;17.55;;;7.07;;
73331;SDS011;61560;33.718;73.040;2022-12-16T00:32:01;20.35;;;8.15;;
73331;SDS011;61560;33.718;73.040;2022-12-16T00:34:28;18.58;;;7.70;;
73331;SDS011;61560;33.718;73.040;2022-12-16T00:36:58;15.90;;;6.55;;
73331;SDS011;61560;33.718;73.040;2022-12-16T00:39:26;13.13;;;6.35;;
73331;SDS011;61560;33.718;73.040;2022-12-16T00:41:54;14.82;;;6.82;;
73331;SDS011;61560;33.718;73.040;2022-12-16T00:44:20;18.33;;;7.53;;
73331;SDS011;61560;33.718;73.040;2022-12-16T00:46:48;19.88;;;7.68;;
73331;SDS011;61560;33.718;73.040;2022-12-16T00:49:15;18.13;;;6.70;;
73331;SDS011;61560;33.718;73.040;2022-12-16T00:51:42;17.65;;;6.47;;
73331;SDS011;61560;33.718;73.040;2022-12-16T00:54:10;12.20;;;6.10;;
73331;SDS011;61560;33.718;73.040;2022-12-16T00:56:37;16.50;;;6.05;;
73331;SDS011;61560;33.718;73.040;2022-12-16T00:59:03;15.63;;;6.88;;
73331;SDS011;61560;33.718;73.040;2022-12-16T01:01:31;17.67;;;7.00;;
73331;SDS011;61560;33.718;73.040;2022-12-16T01:03:58;13.85;;;6.32;;
73331;SDS011;61560;33.718;73.040;2022-12-16T01:06:24;12.45;;;7.03;;
73331;SDS011;61560;33.718;73.040;2022-12-16T01:08:50;10.88;;;6.25;;
73331;SDS011;61560;33.718;73.040;2022-12-16T01:11:17;13.85;;;6.35;;
73331;SDS011;61560;33.718;73.040;2022-12-16T01:13:45;15.00;;;6.25;;
73331;SDS011;61560;33.718;73.040;2022-12-16T01:16:16;18.20;;;7.03;;
73331;SDS011;61560;33.718;73.040;2022-12-16T01:18:42;15.00;;;6.78;;
73331;SDS011;61560;33.718;73.040;2022-12-16T01:21:10;16.80;;;7.32;;
73331;SDS011;61560;33.718;73.040;2022-12-16T01:23:38;17.52;;;7.30;;
73331;SDS011;61560;33.718;73.040;2022-12-16T01:26:05;23.63;;;7.40;;
73331;SDS011;61560;33.718;73.040;2022-12-16T01:28:32;15.00;;;7.65;;
73331;SDS011;61560;33.718;73.040;2022-12-16T01:31:00;20.77;;;8.00;;
73331;SDS011;61560;33.718;73.040;2022-12-16T01:33:31;18.00;;;7.90;;
73331;SDS011;61560;33.718;73.040;2022-12-16T01:36:06;26.15;;;9.35;;
73331;SDS011;61560;33.718;73.040;2022-12-16T01:38:37;22.17;;;8.05;;
73331;SDS011;61560;33.718;73.040;2022-12-16T01:41:04;19.70;;;8.27;;
73331;SDS011;61560;33.718;73.040;2022-12-16T01:43:35;18.05;;;7.13;;
73331;SDS011;61560;33.718;73.040;2022-12-16T01:46:07;28.63;;;10.23;;
73331;SDS011;61560;33.718;73.040;2022-12-16T01:48:50;27.30;;;8.20;;
73331;SDS011;61560;33.718;73.040;2022-12-16T01:51:50;19.85;;;8.88;;
73331;SDS011;61560;33.718;73.040;2022-12-16T01:54:15;15.95;;;7.53;;
73331;SDS011;61560;33.718;73.040;2022-12-16T01:56:50;24.17;;;8.32;;
73331;SDS011;61560;33.718;73.040;2022-12-16T01:59:21;16.83;;;7.60;;
73331;SDS011;61560;33.718;73.040;2022-12-16T02:01:51;22.02;;;8.55;;
73331;SDS011;61560;33.718;73.040;2022-12-16T02:04:17;22.90;;;8.55;;
73331;SDS011;61560;33.718;73.040;2022-12-16T02:06:44;15.73;;;7.32;;
73331;SDS011;61560;33.718;73.040;2022-12-16T02:09:12;20.02;;;8.23;;
73331;SDS011;61560;33.718;73.040;2022-12-16T02:17:27;20.17;;;8.00;;
73331;SDS011;61560;33.718;73.040;2022-12-16T02:23:04;23.27;;;9.85;;
73331;SDS011;61560;33.718;73.040;2022-12-16T02:29:28;22.00;;;8.38;;
73331;SDS011;61560;33.718;73.040;2022-12-16T02:31:57;18.65;;;8.40;;
73331;SDS011;61560;33.718;73.040;2022-12-16T02:34:58;26.08;;;10.32;;
73331;SDS011;61560;33.718;73.040;2022-12-16T02:40:08;25.33;;;12.00;;
73331;SDS011;61560;33.718;73.040;2022-12-16T02:42:47;30.35;;;13.82;;
73331;SDS011;61560;33.718;73.040;2022-12-16T02:47:47;56.80;;;18.90;;
73331;SDS011;61560;33.718;73.040;2022-12-16T02:50:16;62.28;;;24.05;;
73331;SDS011;61560;33.718;73.040;2022-12-16T02:52:49;73.80;;;26.95;;
73331;SDS011;61560;33.718;73.040;2022-12-16T02:55:18;61.85;;;23.65;;
73331;SDS011;61560;33.718;73.040;2022-12-16T03:03:46;54.08;;;20.83;;
73331;SDS011;61560;33.718;73.040;2022-12-16T03:06:20;56.42;;;21.70;;
73331;SDS011;61560;33.718;73.040;2022-12-16T03:08:50;54.95;;;21.15;;
73331;SDS011;61560;33.718;73.040;2022-12-16T03:11:20;56.13;;;22.33;;
73331;SDS011;61560;33.718;73.040;2022-12-16T03:13:52;51.88;;;21.63;;
73331;SDS011;61560;33.718;73.040;2022-12-16T03:16:21;62.33;;;19.38;;
73331;SDS011;61560;33.718;73.040;2022-12-16T03:18:53;55.97;;;18.73;;
73331;SDS011;61560;33.718;73.040;2022-12-16T03:21:23;51.33;;;19.23;;
73331;SDS011;61560;33.718;73.040;2022-12-16T03:23:58;57.05;;;21.15;;
73331;SDS011;61560;33.718;73.040;2022-12-16T03:26:32;53.00;;;19.83;;
73331;SDS011;61560;33.718;73.040;2022-12-16T03:29:05;63.97;;;21.50;;
73331;SDS011;61560;33.718;73.040;2022-12-16T03:31:46;49.90;;;19.95;;
73331;SDS011;61560;33.718;73.040;2022-12-16T03:34:15;49.08;;;18.40;;
73331;SDS011;61560;33.718;73.040;2022-12-16T03:37:03;52.90;;;19.77;;
73331;SDS011;61560;33.718;73.040;2022-12-16T03:39:34;61.83;;;20.80;;
73331;SDS011;61560;33.718;73.040;2022-12-16T03:42:04;50.10;;;21.60;;
73331;SDS011;61560;33.718;73.040;2022-12-16T03:44:31;52.78;;;20.60;;
73331;SDS011;61560;33.718;73.040;2022-12-16T03:47:01;63.28;;;22.52;;
73331;SDS011;61560;33.718;73.040;2022-12-16T03:49:28;69.65;;;22.35;;
73331;SDS011;61560;33.718;73.040;2022-12-16T03:51:54;62.83;;;23.67;;
73331;SDS011;61560;33.718;73.040;2022-12-16T03:54:21;54.65;;;23.05;;
73331;SDS011;61560;33.718;73.040;2022-12-16T03:56:50;79.40;;;25.45;;
73331;SDS011;61560;33.718;73.040;2022-12-16T03:59:17;67.15;;;24.50;;
73331;SDS011;61560;33.718;73.040;2022-12-16T04:01:43;69.47;;;25.73;;
73331;SDS011;61560;33.718;73.040;2022-12-16T04:04:10;61.88;;;24.73;;
73331;SDS011;61560;33.718;73.040;2022-12-16T04:06:38;95.32;;;30.35;;
73331;SDS011;61560;33.718;73.040;2022-12-16T04:09:04;81.15;;;30.90;;
73331;SDS011;61560;33.718;73.040;2022-12-16T04:11:31;83.35;;;34.13;;
73331;SDS011;61560;33.718;73.040;2022-12-16T04:14:16;76.30;;;32.75;;
73331;SDS011;61560;33.718;73.040;2022-12-16T04:17:02;87.15;;;33.05;;
73331;SDS011;61560;33.718;73.040;2022-12-16T04:19:47;68.03;;;26.80;;
73331;SDS011;61560;33.718;73.040;2022-12-16T04:22:37;71.88;;;27.15;;
73331;SDS011;61560;33.718;73.040;2022-12-16T04:25:25;53.20;;;22.75;;
73331;SDS011;61560;33.718;73.040;2022-12-16T04:27:55;62.28;;;25.25;;
73331;SDS011;61560;33.718;73.040;2022-12-16T04:30:23;60.05;;;22.77;;
73331;SDS011;61560;33.718;73.040;2022-12-16T04:35:43;53.42;;;21.10;;
73331;SDS011;61560;33.718;73.040;2022-12-16T04:38:28;58.03;;;21.90;;
73331;SDS011;61560;33.718;73.040;2022-12-16T04:41:13;55.78;;;21.77;;
73331;SDS011;61560;33.718;73.040;2022-12-16T04:43:59;57.92;;;24.15;;
73331;SDS011;61560;33.718;73.040;2022-12-16T04:46:44;68.15;;;25.25;;
73331;SDS011;61560;33.718;73.040;2022-12-16T04:49:29;53.58;;;22.02;;
73331;SDS011;61560;33.718;73.040;2022-12-16T04:52:14;58.78;;;24.90;;
73331;SDS011;61560;33.718;73.040;2022-12-16T04:54:59;48.70;;;21.63;;
73331;SDS011;61560;33.718;73.040;2022-12-16T04:57:52;56.38;;;22.42;;
73331;SDS011;61560;33.718;73.040;2022-12-16T05:00:39;53.80;;;21.48;;
73331;SDS011;61560;33.718;73.040;2022-12-16T05:03:24;50.13;;;21.05;;
73331;SDS011;61560;33.718;73.040;2022-12-16T05:06:10;52.90;;;21.17;;
73331;SDS011;61560;33.718;73.040;2022-12-16T05:08:57;54.40;;;22.58;;
73331;SDS011;61560;33.718;73.040;2022-12-16T05:11:42;56.72;;;21.48;;
73331;SDS011;61560;33.718;73.040;2022-12-16T05:14:28;58.50;;;22.02;;
73331;SDS011;61560;33.718;73.040;2022-12-16T05:17:14;56.30;;;22.58;;
73331;SDS011;61560;33.718;73.040;2022-12-16T05:19:59;53.08;;;21.38;;
73331;SDS011;61560;33.718;73.040;2022-12-16T05:22:45;39.42;;;16.83;;
73331;SDS011;61560;33.718;73.040;2022-12-16T05:25:31;50.35;;;19.63;;
73331;SDS011;61560;33.718;73.040;2022-12-16T05:28:16;55.50;;;22.13;;
73331;SDS011;61560;33.718;73.040;2022-12-16T05:31:01;53.65;;;22.17;;
73331;SDS011;61560;33.718;73.040;2022-12-16T05:33:46;53.50;;;20.95;;
73331;SDS011;61560;33.718;73.040;2022-12-16T05:36:32;60.80;;;23.83;;
73331;SDS011;61560;33.718;73.040;2022-12-16T05:39:22;62.58;;;23.88;;
73331;SDS011;61560;33.718;73.040;2022-12-16T05:42:07;56.80;;;21.77;;
73331;SDS011;61560;33.718;73.040;2022-12-16T05:44:54;67.50;;;24.98;;
73331;SDS011;61560;33.718;73.040;2022-12-16T05:47:38;76.50;;;25.23;;
73331;SDS011;61560;33.718;73.040;2022-12-16T05:50:24;60.95;;;24.77;;
73331;SDS011;61560;33.718;73.040;2022-12-16T05:53:09;65.07;;;25.65;;
73331;SDS011;61560;33.718;73.040;2022-12-16T05:55:55;62.03;;;24.27;;
73331;SDS011;61560;33.718;73.040;2022-12-16T05:58:40;64.15;;;24.63;;
73331;SDS011;61560;33.718;73.040;2022-12-16T06:01:25;67.72;;;25.27;;
73331;SDS011;61560;33.718;73.040;2022-12-16T06:04:10;60.35;;;23.88;;
73331;SDS011;61560;33.718;73.040;2022-12-16T06:06:55;49.25;;;21.40;;
73331;SDS011;61560;33.718;73.040;2022-12-16T06:09:40;63.63;;;23.33;;
73331;SDS011;61560;33.718;73.040;2022-12-16T06:12:26;57.42;;;20.75;;
73331;SDS011;61560;33.718;73.040;2022-12-16T06:15:13;67.85;;;24.23;;
73331;SDS011;61560;33.718;73.040;2022-12-16T06:17:57;55.35;;;23.58;;
73331;SDS011;61560;33.718;73.040;2022-12-16T06:20:42;60.80;;;24.63;;
73331;SDS011;61560;33.718;73.040;2022-12-16T06:23:28;72.53;;;24.90;;
73331;SDS011;61560;33.718;73.040;2022-12-16T06:26:14;64.93;;;25.13;;
73331;SDS011;61560;33.718;73.040;2022-12-16T06:28:59;63.63;;;24.25;;
73331;SDS011;61560;33.718;73.040;2022-12-16T06:31:44;60.30;;;24.95;;
73331;SDS011;61560;33.718;73.040;2022-12-16T06:34:30;63.63;;;24.85;;
73331;SDS011;61560;33.718;73.040;2022-12-16T06:37:15;63.13;;;24.95;;
73331;SDS011;61560;33.718;73.040;2022-12-16T06:40:00;58.53;;;23.00;;
73331;SDS011;61560;33.718;73.040;2022-12-16T06:42:46;52.60;;;21.85;;
73331;SDS011;61560;33.718;73.040;2022-12-16T06:45:32;49.22;;;22.23;;
73331;SDS011;61560;33.718;73.040;2022-12-16T06:48:17;63.85;;;24.20;;
73331;SDS011;61560;33.718;73.040;2022-12-16T06:51:02;58.42;;;26.15;;
73331;SDS011;61560;33.718;73.040;2022-12-16T06:53:47;58.92;;;23.60;;
73331;SDS011;61560;33.718;73.040;2022-12-16T06:56:32;56.53;;;22.60;;
73331;SDS011;61560;33.718;73.040;2022-12-16T06:59:17;62.95;;;22.70;;
73331;SDS011;61560;33.718;73.040;2022-12-16T07:02:02;68.82;;;24.15;;
73331;SDS011;61560;33.718;73.040;2022-12-16T07:04:47;74.50;;;25.50;;
73331;SDS011;61560;33.718;73.040;2022-12-16T07:07:32;54.00;;;23.63;;
73331;SDS011;61560;33.718;73.040;2022-12-16T07:10:17;61.40;;;23.90;;
73331;SDS011;61560;33.718;73.040;2022-12-16T07:13:04;67.85;;;25.05;;
73331;SDS011;61560;33.718;73.040;2022-12-16T07:15:50;73.60;;;26.15;;
73331;SDS011;61560;33.718;73.040;2022-12-16T07:18:36;72.03;;;27.33;;
73331;SDS011;61560;33.718;73.040;2022-12-16T07:21:20;63.08;;;25.58;;
73331;SDS011;61560;33.718;73.040;2022-12-16T07:24:05;74.47;;;28.27;;
73331;SDS011;61560;33.718;73.040;2022-12-16T07:26:50;67.53;;;27.70;;
73331;SDS011;61560;33.718;73.040;2022-12-16T07:29:35;71.53;;;27.75;;
73331;SDS011;61560;33.718;73.040;2022-12-16T07:32:20;79.45;;;30.45;;
73331;SDS011;61560;33.718;73.040;2022-12-16T07:35:05;71.38;;;28.80;;
73331;SDS011;61560;33.718;73.040;2022-12-16T07:37:50;73.40;;;30.20;;
73331;SDS011;61560;33.718;73.040;2022-12-16T07:40:36;73.93;;;31.58;;
73331;SDS011;61560;33.718;73.040;2022-12-16T07:43:21;80.82;;;30.90;;
73331;SDS011;61560;33.718;73.040;2022-12-16T07:46:06;75.25;;;29.70;;
73331;SDS011;61560;33.718;73.040;2022-12-16T07:48:52;74.55;;;31.67;;
73331;SDS011;61560;33.718;73.040;2022-12-16T07:51:38;95.47;;;38.25;;
73331;SDS011;61560;33.718;73.040;2022-12-16T07:54:23;91.97;;;37.58;;
73331;SDS011;61560;33.718;73.040;2022-12-16T07:57:10;93.35;;;37.72;;
73331;SDS011;61560;33.718;73.040;2022-12-16T07:59:55;86.03;;;37.15;;
73331;SDS011;61560;33.718;73.040;2022-12-16T08:02:41;109.00;;;43.55;;
73331;SDS011;61560;33.718;73.040;2022-12-16T08:05:27;100.78;;;42.72;;
73331;SDS011;61560;33.718;73.040;2022-12-16T08:08:13;88.80;;;36.70;;
73331;SDS011;61560;33.718;73.040;2022-12-16T08:10:59;82.20;;;33.95;;
73331;SDS011;61560;33.718;73.040;2022-12-16T08:13:44;73.72;;;32.38;;
73331;SDS011;61560;33.718;73.040;2022-12-16T08:16:30;75.70;;;30.73;;
73331;SDS011;61560;33.718;73.040;2022-12-16T08:19:14;71.90;;;31.48;;
73331;SDS011;61560;33.718;73.040;2022-12-16T08:22:00;73.70;;;33.25;;
73331;SDS011;61560;33.718;73.040;2022-12-16T08:24:45;74.10;;;30.45;;
73331;SDS011;61560;33.718;73.040;2022-12-16T08:27:29;68.07;;;30.88;;
73331;SDS011;61560;33.718;73.040;2022-12-16T08:30:14;69.35;;;28.95;;
73331;SDS011;61560;33.718;73.040;2022-12-16T08:33:00;74.15;;;27.42;;
73331;SDS011;61560;33.718;73.040;2022-12-16T08:35:46;65.38;;;23.70;;
73331;SDS011;61560;33.718;73.040;2022-12-16T08:38:31;66.57;;;23.95;;
73331;SDS011;61560;33.718;73.040;2022-12-16T08:41:17;57.47;;;23.00;;
73331;SDS011;61560;33.718;73.040;2022-12-16T08:44:02;55.08;;;21.70;;
73331;SDS011;61560;33.718;73.040;2022-12-16T08:46:47;57.15;;;22.02;;
73331;SDS011;61560;33.718;73.040;2022-12-16T08:49:33;49.13;;;21.80;;
73331;SDS011;61560;33.718;73.040;2022-12-16T08:52:18;65.00;;;22.05;;
73331;SDS011;61560;33.718;73.040;2022-12-16T08:55:03;48.20;;;20.27;;
73331;SDS011;61560;33.718;73.040;2022-12-16T08:57:55;48.88;;;20.15;;
73331;SDS011;61560;33.718;73.040;2022-12-16T09:00:41;42.53;;;19.98;;
73331;SDS011;61560;33.718;73.040;2022-12-16T09:03:26;50.92;;;20.23;;
73331;SDS011;61560;33.718;73.040;2022-12-16T09:06:12;36.97;;;17.88;;
73331;SDS011;61560;33.718;73.040;2022-12-16T09:08:57;51.70;;;18.55;;
73331;SDS011;61560;33.718;73.040;2022-12-16T09:11:43;43.95;;;17.83;;
73331;SDS011;61560;33.718;73.040;2022-12-16T09:14:28;43.72;;;18.00;;
73331;SDS011;61560;33.718;73.040;2022-12-16T09:17:13;40.70;;;17.13;;
73331;SDS011;61560;33.718;73.040;2022-12-16T09:19:58;44.15;;;18.00;;
73331;SDS011;61560;33.718;73.040;2022-12-16T09:22:44;44.13;;;18.20;;
73331;SDS011;61560;33.718;73.040;2022-12-16T09:25:29;43.22;;;17.60;;
73331;SDS011;61560;33.718;73.040;2022-12-16T09:28:13;35.78;;;17.33;;
73331;SDS011;61560;33.718;73.040;2022-12-16T09:30:58;45.20;;;17.55;;
73331;SDS011;61560;33.718;73.040;2022-12-16T09:33:44;48.53;;;18.45;;
73331;SDS011;61560;33.718;73.040;2022-12-16T09:36:29;48.42;;;18.02;;
73331;SDS011;61560;33.718;73.040;2022-12-16T09:39:14;78.75;;;33.47;;
73331;SDS011;61560;33.718;73.040;2022-12-16T09:42:04;91.65;;;36.47;;
73331;SDS011;61560;33.718;73.040;2022-12-16T09:45:10;96.43;;;41.10;;
73331;SDS011;61560;33.718;73.040;2022-12-16T09:51:04;107.85;;;44.63;;
73331;SDS011;61560;33.718;73.040;2022-12-16T09:53:51;96.63;;;41.80;;
73331;SDS011;61560;33.718;73.040;2022-12-16T09:56:39;115.65;;;49.03;;
73331;SDS011;61560;33.718;73.040;2022-12-16T09:59:39;108.05;;;44.67;;
73331;SDS011;61560;33.718;73.040;2022-12-16T10:02:30;113.25;;;48.70;;
73331;SDS011;61560;33.718;73.040;2022-12-16T10:05:17;110.88;;;46.47;;
73331;SDS011;61560;33.718;73.040;2022-12-16T10:08:23;112.68;;;43.08;;
73331;SDS011;61560;33.718;73.040;2022-12-16T10:11:21;97.28;;;42.78;;
73331;SDS011;61560;33.718;73.040;2022-12-16T10:14:33;92.70;;;39.70;;
73331;SDS011;61560;33.718;73.040;2022-12-16T10:17:24;92.63;;;41.20;;
73331;SDS011;61560;33.718;73.040;2022-12-16T10:20:46;102.35;;;44.33;;
73331;SDS011;61560;33.718;73.040;2022-12-16T10:29:56;112.78;;;45.72;;
73331;SDS011;61560;33.718;73.040;2022-12-16T10:32:45;113.72;;;46.97;;
73331;SDS011;61560;33.718;73.040;2022-12-16T10:35:34;103.55;;;46.40;;
73331;SDS011;61560;33.718;73.040;2022-12-16T10:41:16;101.60;;;42.80;;
73331;SDS011;61560;33.718;73.040;2022-12-16T10:44:02;100.05;;;42.20;;
73331;SDS011;61560;33.718;73.040;2022-12-16T10:46:57;93.68;;;38.33;;
73331;SDS011;61560;33.718;73.040;2022-12-16T10:49:41;98.32;;;41.55;;
73331;SDS011;61560;33.718;73.040;2022-12-16T10:52:27;84.20;;;34.88;;
73331;SDS011;61560;33.718;73.040;2022-12-16T10:58:45;78.95;;;32.38;;
73331;SDS011;61560;33.718;73.040;2022-12-16T11:01:38;86.22;;;34.10;;
73331;SDS011;61560;33.718;73.040;2022-12-16T11:19:27;84.10;;;35.13;;
73331;SDS011;61560;33.718;73.040;2022-12-16T11:22:20;70.75;;;31.38;;
73331;SDS011;61560;33.718;73.040;2022-12-16T11:30:53;68.13;;;25.58;;
73331;SDS011;61560;33.718;73.040;2022-12-16T11:33:41;66.32;;;28.67;;
73331;SDS011;61560;33.718;73.040;2022-12-16T11:36:28;54.00;;;22.83;;
73331;SDS011;61560;33.718;73.040;2022-12-16T11:39:18;51.00;;;22.52;;
73331;SDS011;61560;33.718;73.040;2022-12-16T11:42:06;56.30;;;22.17;;
73331;SDS011;61560;33.718;73.040;2022-12-16T11:45:00;47.58;;;21.15;;
73331;SDS011;61560;33.718;73.040;2022-12-16T11:47:49;43.72;;;20.50;;
73331;SDS011;61560;33.718;73.040;2022-12-16T11:50:41;58.53;;;22.10;;
73331;SDS011;61560;33.718;73.040;2022-12-16T11:56:39;53.70;;;22.33;;
73331;SDS011;61560;33.718;73.040;2022-12-16T11:59:40;58.95;;;23.67;;
73331;SDS011;61560;33.718;73.040;2022-12-16T12:05:23;54.88;;;22.23;;
73331;SDS011;61560;33.718;73.040;2022-12-16T12:08:45;53.03;;;21.70;;
73331;SDS011;61560;33.718;73.040;2022-12-16T12:11:38;51.00;;;21.27;;
73331;SDS011;61560;33.718;73.040;2022-12-16T12:18:10;76.18;;;28.20;;
73331;SDS011;61560;33.718;73.040;2022-12-16T12:21:26;66.45;;;29.23;;
73331;SDS011;61560;33.718;73.040;2022-12-16T12:24:52;74.22;;;29.48;;
73331;SDS011;61560;33.718;73.040;2022-12-16T12:28:04;77.13;;;28.90;;
73331;SDS011;61560;33.718;73.040;2022-12-16T12:34:24;68.70;;;28.35;;
73331;SDS011;61560;33.718;73.040;2022-12-16T12:37:42;61.60;;;26.55;;
73331;SDS011;61560;33.718;73.040;2022-12-16T12:43:53;59.15;;;26.13;;
73331;SDS011;61560;33.718;73.040;2022-12-16T12:46:51;61.45;;;25.88;;
73331;SDS011;61560;33.718;73.040;2022-12-16T12:50:05;62.88;;;26.75;;
73331;SDS011;61560;33.718;73.040;2022-12-16T12:59:22;52.88;;;23.92;;
73331;SDS011;61560;33.718;73.040;2022-12-16T13:02:17;58.90;;;25.98;;
73331;SDS011;61560;33.718;73.040;2022-12-16T13:05:10;62.10;;;26.67;;
73331;SDS011;61560;33.718;73.040;2022-12-16T13:11:24;68.82;;;28.63;;
73331;SDS011;61560;33.718;73.040;2022-12-16T13:17:17;69.78;;;27.50;;
73331;SDS011;61560;33.718;73.040;2022-12-16T13:20:04;72.32;;;29.40;;
73331;SDS011;61560;33.718;73.040;2022-12-16T13:23:22;72.45;;;28.80;;
73331;SDS011;61560;33.718;73.040;2022-12-16T13:26:19;74.13;;;28.02;;
73331;SDS011;61560;33.718;73.040;2022-12-16T13:35:02;87.20;;;31.30;;
73331;SDS011;61560;33.718;73.040;2022-12-16T13:37:58;77.43;;;28.90;;
73331;SDS011;61560;33.718;73.040;2022-12-16T13:41:06;67.28;;;28.08;;
73331;SDS011;61560;33.718;73.040;2022-12-16T13:44:10;68.78;;;26.70;;
73331;SDS011;61560;33.718;73.040;2022-12-16T13:46:56;68.82;;;27.98;;
73331;SDS011;61560;33.718;73.040;2022-12-16T13:49:46;68.40;;;27.40;;
73331;SDS011;61560;33.718;73.040;2022-12-16T13:58:43;70.30;;;27.67;;
73331;SDS011;61560;33.718;73.040;2022-12-16T14:04:34;70.18;;;27.15;;
73331;SDS011;61560;33.718;73.040;2022-12-16T14:07:27;79.35;;;29.27;;
73331;SDS011;61560;33.718;73.040;2022-12-16T14:10:22;62.33;;;26.50;;
73331;SDS011;61560;33.718;73.040;2022-12-16T14:13:14;65.22;;;26.05;;
73331;SDS011;61560;33.718;73.040;2022-12-16T14:22:28;61.55;;;25.75;;
73331;SDS011;61560;33.718;73.040;2022-12-16T14:25:19;62.72;;;25.58;;
73331;SDS011;61560;33.718;73.040;2022-12-16T14:31:33;58.67;;;23.83;;
73331;SDS011;61560;33.718;73.040;2022-12-16T14:34:39;67.40;;;25.58;;
73331;SDS011;61560;33.718;73.040;2022-12-16T14:37:33;60.67;;;24.60;;
73331;SDS011;61560;33.718;73.040;2022-12-16T14:40:28;51.03;;;23.23;;
73331;SDS011;61560;33.718;73.040;2022-12-16T14:43:15;52.72;;;22.85;;
73331;SDS011;61560;33.718;73.040;2022-12-16T14:46:03;69.15;;;26.20;;
73331;SDS011;61560;33.718;73.040;2022-12-16T14:48:50;59.72;;;24.48;;
73331;SDS011;61560;33.718;73.040;2022-12-16T14:51:36;60.78;;;25.10;;
73331;SDS011;61560;33.718;73.040;2022-12-16T14:54:35;57.20;;;23.63;;
73331;SDS011;61560;33.718;73.040;2022-12-16T14:57:24;48.45;;;21.05;;
73331;SDS011;61560;33.718;73.040;2022-12-16T15:00:14;67.68;;;24.80;;
73331;SDS011;61560;33.718;73.040;2022-12-16T15:08:57;53.28;;;21.30;;
73331;SDS011;61560;33.718;73.040;2022-12-16T15:11:46;56.70;;;23.60;;
73331;SDS011;61560;33.718;73.040;2022-12-16T15:14:36;52.15;;;22.10;;
73331;SDS011;61560;33.718;73.040;2022-12-16T15:17:32;46.15;;;19.90;;
73331;SDS011;61560;33.718;73.040;2022-12-16T15:20:36;67.00;;;24.38;;
73331;SDS011;61560;33.718;73.040;2022-12-16T15:23:30;54.90;;;23.02;;
73331;SDS011;61560;33.718;73.040;2022-12-16T15:26:20;64.65;;;22.67;;
73331;SDS011;61560;33.718;73.040;2022-12-16T15:32:30;50.47;;;21.23;;
73331;SDS011;61560;33.718;73.040;2022-12-16T15:35:24;48.83;;;21.77;;
73331;SDS011;61560;33.718;73.040;2022-12-16T15:41:01;49.90;;;20.10;;
73331;SDS011;61560;33.718;73.040;2022-12-16T15:43:48;53.60;;;20.63;;
73331;SDS011;61560;33.718;73.040;2022-12-16T15:46:35;58.65;;;21.33;;
73331;SDS011;61560;33.718;73.040;2022-12-16T15:49:21;52.25;;;20.50;;
73331;SDS011;61560;33.718;73.040;2022-12-16T15:55:27;52.65;;;19.98;;
73331;SDS011;61560;33.718;73.040;2022-12-16T15:58:29;52.65;;;20.20;;
73331;SDS011;61560;33.718;73.040;2022-12-16T16:01:18;47.15;;;18.33;;
73331;SDS011;61560;33.718;73.040;2022-12-16T16:04:24;44.72;;;18.50;;
73331;SDS011;61560;33.718;73.040;2022-12-16T16:07:20;48.90;;;18.27;;
73331;SDS011;61560;33.718;73.040;2022-12-16T16:10:15;60.63;;;21.45;;
73331;SDS011;61560;33.718;73.040;2022-12-16T16:13:01;51.92;;;20.35;;
73331;SDS011;61560;33.718;73.040;2022-12-16T16:15:47;51.80;;;21.35;;
73331;SDS011;61560;33.718;73.040;2022-12-16T16:18:33;57.20;;;20.08;;
73331;SDS011;61560;33.718;73.040;2022-12-16T16:21:18;47.33;;;21.55;;
73331;SDS011;61560;33.718;73.040;2022-12-16T16:24:03;44.70;;;18.42;;
73331;SDS011;61560;33.718;73.040;2022-12-16T16:26:48;47.95;;;18.85;;
73331;SDS011;61560;33.718;73.040;2022-12-16T16:29:35;43.72;;;20.27;;
73331;SDS011;61560;33.718;73.040;2022-12-16T16:32:20;52.53;;;19.40;;
73331;SDS011;61560;33.718;73.040;2022-12-16T16:35:05;54.00;;;20.63;;
73331;SDS011;61560;33.718;73.040;2022-12-16T16:37:51;50.97;;;19.58;;
73331;SDS011;61560;33.718;73.040;2022-12-16T16:40:41;45.85;;;17.48;;
73331;SDS011;61560;33.718;73.040;2022-12-16T16:43:27;56.13;;;18.38;;
73331;SDS011;61560;33.718;73.040;2022-12-16T16:49:09;54.53;;;19.00;;
73331;SDS011;61560;33.718;73.040;2022-12-16T16:51:56;41.97;;;17.05;;
73331;SDS011;61560;33.718;73.040;2022-12-16T16:54:41;47.20;;;18.50;;
73331;SDS011;61560;33.718;73.040;2022-12-16T16:57:27;47.15;;;17.15;;
73331;SDS011;61560;33.718;73.040;2022-12-16T17:00:18;46.55;;;18.85;;
73331;SDS011;61560;33.718;73.040;2022-12-16T17:03:03;41.33;;;16.38;;
73331;SDS011;61560;33.718;73.040;2022-12-16T17:05:48;47.72;;;19.23;;
73331;SDS011;61560;33.718;73.040;2022-12-16T17:08:34;46.95;;;17.70;;
73331;SDS011;61560;33.718;73.040;2022-12-16T17:11:20;45.83;;;19.25;;
73331;SDS011;61560;33.718;73.040;2022-12-16T17:14:12;41.33;;;16.60;;
73331;SDS011;61560;33.718;73.040;2022-12-16T17:16:59;39.45;;;17.58;;
73331;SDS011;61560;33.718;73.040;2022-12-16T17:19:45;46.78;;;19.23;;
73331;SDS011;61560;33.718;73.040;2022-12-16T17:22:30;48.00;;;18.35;;
73331;SDS011;61560;33.718;73.040;2022-12-16T17:25:16;42.17;;;17.92;;
73331;SDS011;61560;33.718;73.040;2022-12-16T17:28:02;41.65;;;16.48;;
73331;SDS011;61560;33.718;73.040;2022-12-16T17:30:47;42.33;;;18.00;;
73331;SDS011;61560;33.718;73.040;2022-12-16T17:33:32;42.65;;;18.88;;
73331;SDS011;61560;33.718;73.040;2022-12-16T17:36:20;37.10;;;17.00;;
73331;SDS011;61560;33.718;73.040;2022-12-16T17:39:05;47.92;;;19.08;;
73331;SDS011;61560;33.718;73.040;2022-12-16T17:41:50;43.70;;;17.02;;
73331;SDS011;61560;33.718;73.040;2022-12-16T17:44:36;39.45;;;15.85;;
73331;SDS011;61560;33.718;73.040;2022-12-16T17:47:21;37.95;;;14.93;;
73331;SDS011;61560;33.718;73.040;2022-12-16T17:50:07;38.83;;;15.60;;
73331;SDS011;61560;33.718;73.040;2022-12-16T17:52:54;41.53;;;15.13;;
73331;SDS011;61560;33.718;73.040;2022-12-16T17:55:39;34.72;;;15.15;;
73331;SDS011;61560;33.718;73.040;2022-12-16T17:58:33;43.20;;;16.33;;
73331;SDS011;61560;33.718;73.040;2022-12-16T18:01:20;41.03;;;15.98;;